sensor_id;sensor_type;location;lat;lon;timestamp;P1;durP1;ratioP1;P2;durP2;ratioP2
68976;SDS011;56029;52.568;13.588;2023-09-19T00:00:28;7.47;;;2.65;;
68976;SDS011;56029;52.568;13.588;2023-09-19T00:03:14;5.95;;;2.75;;
68976;SDS011;56029;52.568;13.588;2023-09-19T00:05:40;5.97;;;3.00;;
68976;SDS011;56029;52.568;13.588;2023-09-19T00:08:06;5.57;;;2.95;;
68976;SDS011;56029;52.568;13.588;2023-09-19T00:10:32;7.33;;;2.70;;
68976;SDS011;56029;52.568;13.588;2023-09-19T00:12:58;7.60;;;2.80;;
68976;SDS011;56029;52.568;13.588;2023-09-19T00:15:24;4.90;;;2.50;;
68976;SDS011;56029;52.568;13.588;2023-09-19T00:17:54;7.13;;;2.75;;
68976;SDS011;56029;52.568;13.588;2023-09-19T00:20:20;5.97;;;2.63;;
68976;SDS011;56029;52.568;13.588;2023-09-19T00:22:46;4.67;;;2.67;;
68976;SDS011;56029;52.568;13.588;2023-09-19T00:25:12;5.15;;;2.72;;
68976;SDS011;56029;52.568;13.588;2023-09-19T00:27:38;6.73;;;2.60;;
68976;SDS011;56029;52.568;13.588;2023-09-19T00:30:04;5.40;;;2.50;;
68976;SDS011;56029;52.568;13.588;2023-09-19T00:32:30;4.70;;;2.55;;
68976;SDS011;56029;52.568;13.588;2023-09-19T00:34:55;6.13;;;2.90;;
68976;SDS011;56029;52.568;13.588;2023-09-19T00:37:21;4.77;;;2.60;;
68976;SDS011;56029;52.568;13.588;2023-09-19T00:39:46;6.68;;;2.60;;
68976;SDS011;56029;52.568;13.588;2023-09-19T00:42:21;5.37;;;2.60;;
68976;SDS011;56029;52.568;13.588;2023-09-19T00:44:47;5.18;;;2.58;;
68976;SDS011;56029;52.568;13.588;2023-09-19T00:47:13;6.50;;;2.63;;
68976;SDS011;56029;52.568;13.588;2023-09-19T00:49:38;5.57;;;2.57;;
68976;SDS011;56029;52.568;13.588;2023-09-19T00:52:04;7.33;;;2.90;;
68976;SDS011;56029;52.568;13.588;2023-09-19T00:54:30;5.70;;;2.60;;
68976;SDS011;56029;52.568;13.588;2023-09-19T00:56:55;4.68;;;2.55;;
68976;SDS011;56029;52.568;13.588;2023-09-19T00:59:21;6.90;;;2.70;;
68976;SDS011;56029;52.568;13.588;2023-09-19T01:01:47;5.03;;;2.67;;
68976;SDS011;56029;52.568;13.588;2023-09-19T01:04:12;7.88;;;2.97;;
68976;SDS011;56029;52.568;13.588;2023-09-19T01:06:38;5.67;;;2.77;;
68976;SDS011;56029;52.568;13.588;2023-09-19T01:09:04;5.88;;;2.63;;
68976;SDS011;56029;52.568;13.588;2023-09-19T01:11:33;7.27;;;3.00;;
68976;SDS011;56029;52.568;13.588;2023-09-19T01:14:07;5.88;;;2.72;;
68976;SDS011;56029;52.568;13.588;2023-09-19T01:16:48;7.25;;;2.97;;
68976;SDS011;56029;52.568;13.588;2023-09-19T01:19:29;5.20;;;2.78;;
68976;SDS011;56029;52.568;13.588;2023-09-19T01:30:24;5.55;;;2.70;;
68976;SDS011;56029;52.568;13.588;2023-09-19T01:32:52;9.23;;;3.10;;
68976;SDS011;56029;52.568;13.588;2023-09-19T01:35:18;5.17;;;2.80;;
68976;SDS011;56029;52.568;13.588;2023-09-19T01:37:44;6.00;;;2.50;;
68976;SDS011;56029;52.568;13.588;2023-09-19T01:40:10;5.87;;;2.80;;
68976;SDS011;56029;52.568;13.588;2023-09-19T01:42:57;6.78;;;2.78;;
68976;SDS011;56029;52.568;13.588;2023-09-19T01:50:55;6.13;;;2.70;;
68976;SDS011;56029;52.568;13.588;2023-09-19T01:53:26;5.93;;;2.50;;
68976;SDS011;56029;52.568;13.588;2023-09-19T01:55:55;5.88;;;2.90;;
68976;SDS011;56029;52.568;13.588;2023-09-19T01:58:42;6.88;;;2.78;;
68976;SDS011;56029;52.568;13.588;2023-09-19T02:01:16;6.57;;;2.40;;
68976;SDS011;56029;52.568;13.588;2023-09-19T02:03:45;5.28;;;2.70;;
68976;SDS011;56029;52.568;13.588;2023-09-19T02:06:14;4.57;;;2.50;;
68976;SDS011;56029;52.568;13.588;2023-09-19T02:08:40;6.72;;;2.85;;
68976;SDS011;56029;52.568;13.588;2023-09-19T02:11:05;6.03;;;2.60;;
68976;SDS011;56029;52.568;13.588;2023-09-19T02:13:31;5.50;;;2.60;;
68976;SDS011;56029;52.568;13.588;2023-09-19T02:15:56;5.20;;;2.60;;
68976;SDS011;56029;52.568;13.588;2023-09-19T02:18:22;6.32;;;2.63;;
68976;SDS011;56029;52.568;13.588;2023-09-19T02:20:48;7.53;;;2.90;;
68976;SDS011;56029;52.568;13.588;2023-09-19T02:23:14;5.43;;;2.90;;
68976;SDS011;56029;52.568;13.588;2023-09-19T02:25:40;7.13;;;3.20;;
68976;SDS011;56029;52.568;13.588;2023-09-19T02:28:06;5.50;;;2.90;;
68976;SDS011;56029;52.568;13.588;2023-09-19T02:30:32;4.90;;;2.70;;
68976;SDS011;56029;52.568;13.588;2023-09-19T02:32:58;5.83;;;2.53;;
68976;SDS011;56029;52.568;13.588;2023-09-19T02:35:24;7.80;;;2.97;;
68976;SDS011;56029;52.568;13.588;2023-09-19T02:37:50;5.63;;;2.90;;
68976;SDS011;56029;52.568;13.588;2023-09-19T02:40:15;5.57;;;3.10;;
68976;SDS011;56029;52.568;13.588;2023-09-19T02:42:42;5.43;;;2.78;;
68976;SDS011;56029;52.568;13.588;2023-09-19T02:45:07;6.53;;;2.87;;
68976;SDS011;56029;52.568;13.588;2023-09-19T02:47:34;6.80;;;2.85;;
68976;SDS011;56029;52.568;13.588;2023-09-19T02:49:59;5.53;;;2.67;;
68976;SDS011;56029;52.568;13.588;2023-09-19T02:52:25;6.15;;;3.15;;
68976;SDS011;56029;52.568;13.588;2023-09-19T02:54:50;6.00;;;2.97;;
68976;SDS011;56029;52.568;13.588;2023-09-19T02:57:16;6.38;;;2.75;;
68976;SDS011;56029;52.568;13.588;2023-09-19T02:59:41;5.97;;;3.20;;
68976;SDS011;56029;52.568;13.588;2023-09-19T03:02:07;5.53;;;2.90;;
68976;SDS011;56029;52.568;13.588;2023-09-19T03:04:32;5.20;;;3.00;;
68976;SDS011;56029;52.568;13.588;2023-09-19T03:06:58;6.35;;;2.92;;
68976;SDS011;56029;52.568;13.588;2023-09-19T03:09:23;7.60;;;2.93;;
68976;SDS011;56029;52.568;13.588;2023-09-19T03:11:49;6.25;;;2.83;;
68976;SDS011;56029;52.568;13.588;2023-09-19T03:14:14;7.33;;;3.27;;
68976;SDS011;56029;52.568;13.588;2023-09-19T03:16:40;5.73;;;2.90;;
68976;SDS011;56029;52.568;13.588;2023-09-19T03:19:05;5.73;;;3.03;;
68976;SDS011;56029;52.568;13.588;2023-09-19T03:21:31;5.47;;;2.93;;
68976;SDS011;56029;52.568;13.588;2023-09-19T03:23:56;5.40;;;2.90;;
68976;SDS011;56029;52.568;13.588;2023-09-19T03:26:22;5.07;;;3.03;;
68976;SDS011;56029;52.568;13.588;2023-09-19T03:28:47;6.23;;;3.10;;
68976;SDS011;56029;52.568;13.588;2023-09-19T03:31:13;5.93;;;3.10;;
68976;SDS011;56029;52.568;13.588;2023-09-19T03:33:38;5.65;;;3.10;;
68976;SDS011;56029;52.568;13.588;2023-09-19T03:36:04;5.40;;;2.50;;
68976;SDS011;56029;52.568;13.588;2023-09-19T03:38:30;7.88;;;2.80;;
68976;SDS011;56029;52.568;13.588;2023-09-19T03:40:56;4.87;;;2.30;;
68976;SDS011;56029;52.568;13.588;2023-09-19T03:43:22;4.40;;;2.50;;
68976;SDS011;56029;52.568;13.588;2023-09-19T03:45:47;4.30;;;2.10;;
68976;SDS011;56029;52.568;13.588;2023-09-19T03:48:14;3.67;;;1.70;;
68976;SDS011;56029;52.568;13.588;2023-09-19T03:50:40;4.25;;;2.33;;
68976;SDS011;56029;52.568;13.588;2023-09-19T03:53:05;3.20;;;1.80;;
68976;SDS011;56029;52.568;13.588;2023-09-19T03:55:31;3.17;;;1.80;;
68976;SDS011;56029;52.568;13.588;2023-09-19T03:57:56;5.60;;;1.97;;
68976;SDS011;56029;52.568;13.588;2023-09-19T04:00:22;6.60;;;2.35;;
68976;SDS011;56029;52.568;13.588;2023-09-19T04:02:48;3.03;;;1.70;;
68976;SDS011;56029;52.568;13.588;2023-09-19T04:05:14;3.88;;;1.70;;
68976;SDS011;56029;52.568;13.588;2023-09-19T04:07:39;4.27;;;1.83;;
68976;SDS011;56029;52.568;13.588;2023-09-19T04:10:05;4.10;;;1.77;;
68976;SDS011;56029;52.568;13.588;2023-09-19T04:12:31;3.83;;;2.00;;
68976;SDS011;56029;52.568;13.588;2023-09-19T04:14:56;3.50;;;1.60;;
68976;SDS011;56029;52.568;13.588;2023-09-19T04:17:22;3.57;;;1.70;;
68976;SDS011;56029;52.568;13.588;2023-09-19T04:19:47;4.72;;;1.75;;
68976;SDS011;56029;52.568;13.588;2023-09-19T04:22:13;3.17;;;1.80;;
68976;SDS011;56029;52.568;13.588;2023-09-19T04:24:38;4.37;;;2.03;;
68976;SDS011;56029;52.568;13.588;2023-09-19T04:27:04;3.70;;;1.63;;
68976;SDS011;56029;52.568;13.588;2023-09-19T04:29:30;3.03;;;1.80;;
68976;SDS011;56029;52.568;13.588;2023-09-19T04:31:56;2.83;;;1.73;;
68976;SDS011;56029;52.568;13.588;2023-09-19T04:34:22;3.67;;;1.80;;
68976;SDS011;56029;52.568;13.588;2023-09-19T04:36:47;3.05;;;1.77;;
68976;SDS011;56029;52.568;13.588;2023-09-19T04:39:13;3.97;;;1.83;;
68976;SDS011;56029;52.568;13.588;2023-09-19T04:41:38;4.90;;;2.43;;
68976;SDS011;56029;52.568;13.588;2023-09-19T04:44:04;5.15;;;2.13;;
68976;SDS011;56029;52.568;13.588;2023-09-19T04:46:30;4.03;;;2.30;;
68976;SDS011;56029;52.568;13.588;2023-09-19T04:48:56;5.37;;;2.30;;
68976;SDS011;56029;52.568;13.588;2023-09-19T04:51:21;5.57;;;2.30;;
68976;SDS011;56029;52.568;13.588;2023-09-19T04:53:47;4.28;;;2.20;;
68976;SDS011;56029;52.568;13.588;2023-09-19T04:56:12;4.97;;;2.60;;
68976;SDS011;56029;52.568;13.588;2023-09-19T04:58:38;6.37;;;2.40;;
68976;SDS011;56029;52.568;13.588;2023-09-19T05:01:03;5.47;;;2.50;;
68976;SDS011;56029;52.568;13.588;2023-09-19T05:03:29;5.60;;;2.70;;
68976;SDS011;56029;52.568;13.588;2023-09-19T05:05:54;5.73;;;2.60;;
68976;SDS011;56029;52.568;13.588;2023-09-19T05:08:20;4.15;;;2.35;;
68976;SDS011;56029;52.568;13.588;2023-09-19T05:10:45;4.87;;;2.30;;
68976;SDS011;56029;52.568;13.588;2023-09-19T05:13:11;4.82;;;2.65;;
68976;SDS011;56029;52.568;13.588;2023-09-19T05:15:36;4.77;;;2.70;;
68976;SDS011;56029;52.568;13.588;2023-09-19T05:18:02;4.30;;;2.33;;
68976;SDS011;56029;52.568;13.588;2023-09-19T05:20:27;6.45;;;2.65;;
68976;SDS011;56029;52.568;13.588;2023-09-19T05:23:00;4.53;;;2.40;;
68976;SDS011;56029;52.568;13.588;2023-09-19T05:25:26;6.57;;;2.90;;
68976;SDS011;56029;52.568;13.588;2023-09-19T05:27:53;4.70;;;2.60;;
68976;SDS011;56029;52.568;13.588;2023-09-19T05:30:18;6.40;;;2.70;;
68976;SDS011;56029;52.568;13.588;2023-09-19T05:32:44;4.43;;;2.42;;
68976;SDS011;56029;52.568;13.588;2023-09-19T05:35:09;6.57;;;2.27;;
68976;SDS011;56029;52.568;13.588;2023-09-19T05:37:35;6.67;;;2.57;;
68976;SDS011;56029;52.568;13.588;2023-09-19T05:40:01;5.55;;;2.20;;
68976;SDS011;56029;52.568;13.588;2023-09-19T05:42:26;5.50;;;2.37;;
68976;SDS011;56029;52.568;13.588;2023-09-19T05:44:52;5.33;;;2.60;;
68976;SDS011;56029;52.568;13.588;2023-09-19T05:47:17;4.65;;;2.30;;
68976;SDS011;56029;52.568;13.588;2023-09-19T05:49:43;4.50;;;2.40;;
68976;SDS011;56029;52.568;13.588;2023-09-19T05:52:08;6.33;;;2.40;;
68976;SDS011;56029;52.568;13.588;2023-09-19T05:54:34;4.32;;;2.40;;
68976;SDS011;56029;52.568;13.588;2023-09-19T05:57:00;3.50;;;2.10;;
68976;SDS011;56029;52.568;13.588;2023-09-19T05:59:25;4.13;;;2.40;;
68976;SDS011;56029;52.568;13.588;2023-09-19T06:01:51;5.07;;;2.53;;
68976;SDS011;56029;52.568;13.588;2023-09-19T06:04:16;5.23;;;2.60;;
68976;SDS011;56029;52.568;13.588;2023-09-19T06:06:42;4.67;;;2.50;;
68976;SDS011;56029;52.568;13.588;2023-09-19T06:09:07;5.90;;;2.57;;
68976;SDS011;56029;52.568;13.588;2023-09-19T06:11:34;5.05;;;2.47;;
68976;SDS011;56029;52.568;13.588;2023-09-19T06:14:00;6.43;;;2.70;;
68976;SDS011;56029;52.568;13.588;2023-09-19T06:16:26;5.53;;;2.90;;
68976;SDS011;56029;52.568;13.588;2023-09-19T06:18:51;4.68;;;2.40;;
68976;SDS011;56029;52.568;13.588;2023-09-19T06:21:17;4.63;;;2.30;;
68976;SDS011;56029;52.568;13.588;2023-09-19T06:23:43;4.93;;;2.30;;
68976;SDS011;56029;52.568;13.588;2023-09-19T06:26:08;4.65;;;2.13;;
68976;SDS011;56029;52.568;13.588;2023-09-19T06:28:34;4.37;;;2.50;;
68976;SDS011;56029;52.568;13.588;2023-09-19T06:31:01;3.90;;;2.33;;
68976;SDS011;56029;52.568;13.588;2023-09-19T06:33:27;5.37;;;2.30;;
68976;SDS011;56029;52.568;13.588;2023-09-19T06:35:53;7.03;;;2.47;;
68976;SDS011;56029;52.568;13.588;2023-09-19T06:38:18;5.73;;;2.60;;
68976;SDS011;56029;52.568;13.588;2023-09-19T06:40:44;5.63;;;2.53;;
68976;SDS011;56029;52.568;13.588;2023-09-19T06:43:10;5.78;;;2.58;;
68976;SDS011;56029;52.568;13.588;2023-09-19T06:45:36;5.13;;;2.55;;
68976;SDS011;56029;52.568;13.588;2023-09-19T06:48:01;4.40;;;2.23;;
68976;SDS011;56029;52.568;13.588;2023-09-19T06:50:27;5.40;;;2.63;;
68976;SDS011;56029;52.568;13.588;2023-09-19T06:52:53;6.33;;;2.50;;
68976;SDS011;56029;52.568;13.588;2023-09-19T06:55:20;5.38;;;2.63;;
68976;SDS011;56029;52.568;13.588;2023-09-19T06:57:46;4.97;;;2.63;;
68976;SDS011;56029;52.568;13.588;2023-09-19T07:00:13;6.60;;;2.60;;
68976;SDS011;56029;52.568;13.588;2023-09-19T07:02:39;6.65;;;2.60;;
68976;SDS011;56029;52.568;13.588;2023-09-19T07:05:05;6.60;;;2.40;;
68976;SDS011;56029;52.568;13.588;2023-09-19T07:07:30;5.95;;;2.70;;
68976;SDS011;56029;52.568;13.588;2023-09-19T07:09:56;5.53;;;2.70;;
68976;SDS011;56029;52.568;13.588;2023-09-19T07:12:21;5.13;;;2.63;;
68976;SDS011;56029;52.568;13.588;2023-09-19T07:14:47;8.05;;;2.47;;
68976;SDS011;56029;52.568;13.588;2023-09-19T07:17:12;6.30;;;2.80;;
68976;SDS011;56029;52.568;13.588;2023-09-19T07:19:38;5.97;;;2.77;;
68976;SDS011;56029;52.568;13.588;2023-09-19T07:22:03;6.40;;;2.80;;
68976;SDS011;56029;52.568;13.588;2023-09-19T07:24:29;6.10;;;2.70;;
68976;SDS011;56029;52.568;13.588;2023-09-19T07:26:54;6.40;;;2.70;;
68976;SDS011;56029;52.568;13.588;2023-09-19T07:29:20;5.00;;;2.50;;
68976;SDS011;56029;52.568;13.588;2023-09-19T07:31:45;4.93;;;2.67;;
68976;SDS011;56029;52.568;13.588;2023-09-19T07:34:11;5.07;;;2.87;;
68976;SDS011;56029;52.568;13.588;2023-09-19T07:36:36;5.67;;;2.57;;
68976;SDS011;56029;52.568;13.588;2023-09-19T07:39:02;5.80;;;2.53;;
68976;SDS011;56029;52.568;13.588;2023-09-19T07:41:28;6.90;;;2.47;;
68976;SDS011;56029;52.568;13.588;2023-09-19T07:43:53;5.70;;;2.58;;
68976;SDS011;56029;52.568;13.588;2023-09-19T07:46:19;5.03;;;2.30;;
68976;SDS011;56029;52.568;13.588;2023-09-19T07:48:44;5.13;;;2.30;;
68976;SDS011;56029;52.568;13.588;2023-09-19T07:51:10;6.00;;;2.70;;
68976;SDS011;56029;52.568;13.588;2023-09-19T07:53:35;6.13;;;2.30;;
68976;SDS011;56029;52.568;13.588;2023-09-19T07:56:01;6.20;;;2.43;;
68976;SDS011;56029;52.568;13.588;2023-09-19T07:58:30;5.65;;;2.60;;
68976;SDS011;56029;52.568;13.588;2023-09-19T08:00:56;5.70;;;2.50;;
68976;SDS011;56029;52.568;13.588;2023-09-19T08:03:27;5.47;;;2.40;;
68976;SDS011;56029;52.568;13.588;2023-09-19T08:05:52;5.63;;;2.50;;
68976;SDS011;56029;52.568;13.588;2023-09-19T08:08:18;6.70;;;2.80;;
68976;SDS011;56029;52.568;13.588;2023-09-19T08:10:43;5.77;;;2.50;;
68976;SDS011;56029;52.568;13.588;2023-09-19T08:13:09;6.03;;;2.77;;
68976;SDS011;56029;52.568;13.588;2023-09-19T08:15:34;6.70;;;2.83;;
68976;SDS011;56029;52.568;13.588;2023-09-19T08:18:00;8.07;;;3.07;;
68976;SDS011;56029;52.568;13.588;2023-09-19T08:20:25;5.67;;;2.43;;
68976;SDS011;56029;52.568;13.588;2023-09-19T08:22:52;5.53;;;2.70;;
68976;SDS011;56029;52.568;13.588;2023-09-19T08:25:18;6.65;;;2.90;;
68976;SDS011;56029;52.568;13.588;2023-09-19T08:27:44;5.40;;;2.80;;
68976;SDS011;56029;52.568;13.588;2023-09-19T08:30:10;7.35;;;2.70;;
68976;SDS011;56029;52.568;13.588;2023-09-19T08:32:36;8.07;;;2.70;;
68976;SDS011;56029;52.568;13.588;2023-09-19T08:35:01;6.43;;;2.63;;
68976;SDS011;56029;52.568;13.588;2023-09-19T08:37:27;6.22;;;2.88;;
68976;SDS011;56029;52.568;13.588;2023-09-19T08:39:52;5.17;;;2.70;;
68976;SDS011;56029;52.568;13.588;2023-09-19T08:42:18;7.57;;;2.70;;
68976;SDS011;56029;52.568;13.588;2023-09-19T08:44:44;6.37;;;2.40;;
68976;SDS011;56029;52.568;13.588;2023-09-19T08:47:10;5.67;;;2.30;;
68976;SDS011;56029;52.568;13.588;2023-09-19T08:52:10;6.22;;;2.47;;
68976;SDS011;56029;52.568;13.588;2023-09-19T08:54:44;5.93;;;2.90;;
68976;SDS011;56029;52.568;13.588;2023-09-19T08:57:12;6.70;;;3.00;;
68976;SDS011;56029;52.568;13.588;2023-09-19T08:59:38;6.00;;;2.83;;
68976;SDS011;56029;52.568;13.588;2023-09-19T09:02:04;8.82;;;3.28;;
68976;SDS011;56029;52.568;13.588;2023-09-19T09:04:36;7.03;;;3.42;;
68976;SDS011;56029;52.568;13.588;2023-09-19T09:07:06;6.30;;;2.90;;
68976;SDS011;56029;52.568;13.588;2023-09-19T09:09:36;7.07;;;3.13;;
68976;SDS011;56029;52.568;13.588;2023-09-19T09:12:02;6.50;;;2.83;;
68976;SDS011;56029;52.568;13.588;2023-09-19T09:14:28;6.15;;;3.40;;
68976;SDS011;56029;52.568;13.588;2023-09-19T09:16:54;7.38;;;3.10;;
68976;SDS011;56029;52.568;13.588;2023-09-19T09:19:20;5.82;;;2.92;;
68976;SDS011;56029;52.568;13.588;2023-09-19T09:21:46;6.67;;;3.23;;
68976;SDS011;56029;52.568;13.588;2023-09-19T09:24:27;6.63;;;2.83;;
68976;SDS011;56029;52.568;13.588;2023-09-19T09:26:54;5.43;;;2.65;;
68976;SDS011;56029;52.568;13.588;2023-09-19T09:29:39;8.02;;;3.03;;
68976;SDS011;56029;52.568;13.588;2023-09-19T09:32:16;7.55;;;2.90;;
68976;SDS011;56029;52.568;13.588;2023-09-19T09:34:46;5.90;;;2.70;;
68976;SDS011;56029;52.568;13.588;2023-09-19T09:37:14;5.22;;;2.90;;
68976;SDS011;56029;52.568;13.588;2023-09-19T09:39:41;6.68;;;2.97;;
68976;SDS011;56029;52.568;13.588;2023-09-19T09:42:28;8.07;;;3.10;;
68976;SDS011;56029;52.568;13.588;2023-09-19T09:45:12;7.18;;;2.75;;
68976;SDS011;56029;52.568;13.588;2023-09-19T09:47:45;8.43;;;3.33;;
68976;SDS011;56029;52.568;13.588;2023-09-19T09:50:11;6.95;;;2.80;;
68976;SDS011;56029;52.568;13.588;2023-09-19T09:52:44;7.20;;;2.90;;
68976;SDS011;56029;52.568;13.588;2023-09-19T09:55:10;9.37;;;3.17;;
68976;SDS011;56029;52.568;13.588;2023-09-19T09:57:35;7.68;;;3.13;;
68976;SDS011;56029;52.568;13.588;2023-09-19T10:00:01;12.97;;;3.33;;
68976;SDS011;56029;52.568;13.588;2023-09-19T10:02:29;7.13;;;3.15;;
68976;SDS011;56029;52.568;13.588;2023-09-19T10:04:55;7.88;;;3.17;;
68976;SDS011;56029;52.568;13.588;2023-09-19T10:07:28;9.57;;;3.42;;
68976;SDS011;56029;52.568;13.588;2023-09-19T10:09:54;8.30;;;3.40;;
68976;SDS011;56029;52.568;13.588;2023-09-19T10:12:20;7.80;;;3.30;;
68976;SDS011;56029;52.568;13.588;2023-09-19T10:14:45;9.93;;;3.63;;
68976;SDS011;56029;52.568;13.588;2023-09-19T10:17:11;8.90;;;3.03;;
68976;SDS011;56029;52.568;13.588;2023-09-19T10:19:42;5.83;;;2.97;;
68976;SDS011;56029;52.568;13.588;2023-09-19T10:22:16;6.80;;;3.00;;
68976;SDS011;56029;52.568;13.588;2023-09-19T10:24:43;5.38;;;2.70;;
68976;SDS011;56029;52.568;13.588;2023-09-19T10:27:09;6.25;;;2.60;;
68976;SDS011;56029;52.568;13.588;2023-09-19T10:29:34;8.07;;;3.13;;
68976;SDS011;56029;52.568;13.588;2023-09-19T10:32:03;10.10;;;3.17;;
68976;SDS011;56029;52.568;13.588;2023-09-19T10:34:28;8.52;;;3.00;;
68976;SDS011;56029;52.568;13.588;2023-09-19T10:36:55;8.87;;;2.90;;
68976;SDS011;56029;52.568;13.588;2023-09-19T10:39:20;7.95;;;3.00;;
68976;SDS011;56029;52.568;13.588;2023-09-19T10:41:50;7.27;;;2.87;;
68976;SDS011;56029;52.568;13.588;2023-09-19T10:44:16;5.18;;;2.78;;
68976;SDS011;56029;52.568;13.588;2023-09-19T10:46:44;9.20;;;2.75;;
68976;SDS011;56029;52.568;13.588;2023-09-19T10:49:10;9.00;;;2.80;;
68976;SDS011;56029;52.568;13.588;2023-09-19T10:51:40;7.50;;;2.80;;
68976;SDS011;56029;52.568;13.588;2023-09-19T10:54:11;7.47;;;2.50;;
68976;SDS011;56029;52.568;13.588;2023-09-19T10:56:42;5.55;;;2.70;;
68976;SDS011;56029;52.568;13.588;2023-09-19T10:59:14;6.60;;;2.90;;
68976;SDS011;56029;52.568;13.588;2023-09-19T11:01:44;6.67;;;2.50;;
68976;SDS011;56029;52.568;13.588;2023-09-19T11:04:20;5.18;;;2.38;;
68976;SDS011;56029;52.568;13.588;2023-09-19T11:06:59;7.47;;;2.47;;
68976;SDS011;56029;52.568;13.588;2023-09-19T11:14:53;6.87;;;2.47;;
68976;SDS011;56029;52.568;13.588;2023-09-19T11:22:55;5.40;;;2.00;;
68976;SDS011;56029;52.568;13.588;2023-09-19T11:25:41;7.00;;;2.80;;
68976;SDS011;56029;52.568;13.588;2023-09-19T11:30:31;7.53;;;2.42;;
68976;SDS011;56029;52.568;13.588;2023-09-19T11:33:16;6.03;;;2.50;;
68976;SDS011;56029;52.568;13.588;2023-09-19T11:36:10;5.82;;;2.63;;
68976;SDS011;56029;52.568;13.588;2023-09-19T11:43:47;4.75;;;1.80;;
68976;SDS011;56029;52.568;13.588;2023-09-19T11:46:15;5.15;;;2.50;;
68976;SDS011;56029;52.568;13.588;2023-09-19T11:48:42;5.93;;;2.53;;
68976;SDS011;56029;52.568;13.588;2023-09-19T11:51:11;7.13;;;2.53;;
68976;SDS011;56029;52.568;13.588;2023-09-19T11:53:38;5.83;;;2.70;;
68976;SDS011;56029;52.568;13.588;2023-09-19T11:56:05;5.70;;;2.20;;
68976;SDS011;56029;52.568;13.588;2023-09-19T11:58:31;6.65;;;2.58;;
68976;SDS011;56029;52.568;13.588;2023-09-19T12:00:57;4.97;;;1.98;;
68976;SDS011;56029;52.568;13.588;2023-09-19T12:03:27;6.25;;;2.25;;
68976;SDS011;56029;52.568;13.588;2023-09-19T12:05:54;6.53;;;2.33;;
68976;SDS011;56029;52.568;13.588;2023-09-19T12:08:20;7.03;;;2.30;;
68976;SDS011;56029;52.568;13.588;2023-09-19T12:10:48;5.00;;;2.00;;
68976;SDS011;56029;52.568;13.588;2023-09-19T12:13:16;5.85;;;1.95;;
68976;SDS011;56029;52.568;13.588;2023-09-19T12:15:42;5.63;;;1.98;;
68976;SDS011;56029;52.568;13.588;2023-09-19T12:18:08;5.83;;;2.13;;
68976;SDS011;56029;52.568;13.588;2023-09-19T12:20:43;5.33;;;2.10;;
68976;SDS011;56029;52.568;13.588;2023-09-19T12:23:12;5.32;;;2.00;;
68976;SDS011;56029;52.568;13.588;2023-09-19T12:25:42;8.07;;;2.50;;
68976;SDS011;56029;52.568;13.588;2023-09-19T12:28:08;6.15;;;1.88;;
68976;SDS011;56029;52.568;13.588;2023-09-19T12:30:33;5.60;;;1.80;;
68976;SDS011;56029;52.568;13.588;2023-09-19T12:32:59;3.30;;;1.70;;
68976;SDS011;56029;52.568;13.588;2023-09-19T12:35:28;5.53;;;1.90;;
68976;SDS011;56029;52.568;13.588;2023-09-19T12:37:54;6.55;;;2.10;;
68976;SDS011;56029;52.568;13.588;2023-09-19T12:40:20;7.43;;;2.20;;
68976;SDS011;56029;52.568;13.588;2023-09-19T12:42:47;5.65;;;1.80;;
68976;SDS011;56029;52.568;13.588;2023-09-19T12:45:13;5.13;;;1.73;;
68976;SDS011;56029;52.568;13.588;2023-09-19T12:47:39;6.65;;;2.10;;
68976;SDS011;56029;52.568;13.588;2023-09-19T12:50:09;6.22;;;1.55;;
68976;SDS011;56029;52.568;13.588;2023-09-19T12:52:51;7.33;;;1.53;;
68976;SDS011;56029;52.568;13.588;2023-09-19T12:55:21;4.25;;;1.60;;
68976;SDS011;56029;52.568;13.588;2023-09-19T12:58:29;4.75;;;1.65;;
68976;SDS011;56029;52.568;13.588;2023-09-19T13:00:40;4.43;;;1.40;;
68976;SDS011;56029;52.568;13.588;2023-09-19T13:03:14;4.38;;;1.33;;
68976;SDS011;56029;52.568;13.588;2023-09-19T13:05:49;5.40;;;1.70;;
68976;SDS011;56029;52.568;13.588;2023-09-19T13:08:25;4.47;;;1.63;;
68976;SDS011;56029;52.568;13.588;2023-09-19T13:13:33;6.32;;;1.60;;
68976;SDS011;56029;52.568;13.588;2023-09-19T13:15:58;5.17;;;1.50;;
68976;SDS011;56029;52.568;13.588;2023-09-19T13:18:26;5.75;;;1.50;;
68976;SDS011;56029;52.568;13.588;2023-09-19T13:21:10;5.17;;;1.80;;
68976;SDS011;56029;52.568;13.588;2023-09-19T13:23:39;3.50;;;1.20;;
68976;SDS011;56029;52.568;13.588;2023-09-19T13:26:04;5.82;;;1.50;;
68976;SDS011;56029;52.568;13.588;2023-09-19T13:28:30;4.87;;;1.70;;
68976;SDS011;56029;52.568;13.588;2023-09-19T13:30:55;5.87;;;1.70;;
68976;SDS011;56029;52.568;13.588;2023-09-19T13:33:21;3.15;;;1.50;;
68976;SDS011;56029;52.568;13.588;2023-09-19T13:35:47;3.80;;;1.70;;
68976;SDS011;56029;52.568;13.588;2023-09-19T13:38:12;4.50;;;1.60;;
68976;SDS011;56029;52.568;13.588;2023-09-19T13:40:38;5.30;;;1.70;;
68976;SDS011;56029;52.568;13.588;2023-09-19T13:43:04;4.90;;;1.50;;
68976;SDS011;56029;52.568;13.588;2023-09-19T13:45:30;4.63;;;1.47;;
68976;SDS011;56029;52.568;13.588;2023-09-19T13:47:56;5.00;;;1.50;;
68976;SDS011;56029;52.568;13.588;2023-09-19T13:50:21;3.97;;;1.70;;
68976;SDS011;56029;52.568;13.588;2023-09-19T13:52:47;4.17;;;1.63;;
68976;SDS011;56029;52.568;13.588;2023-09-19T13:55:12;3.75;;;1.30;;
68976;SDS011;56029;52.568;13.588;2023-09-19T13:57:38;4.73;;;1.57;;
68976;SDS011;56029;52.568;13.588;2023-09-19T14:00:03;4.57;;;1.40;;
68976;SDS011;56029;52.568;13.588;2023-09-19T14:02:29;3.75;;;1.42;;
68976;SDS011;56029;52.568;13.588;2023-09-19T14:04:55;2.90;;;1.50;;
68976;SDS011;56029;52.568;13.588;2023-09-19T14:07:21;4.15;;;1.60;;
68976;SDS011;56029;52.568;13.588;2023-09-19T14:09:46;4.60;;;1.70;;
68976;SDS011;56029;52.568;13.588;2023-09-19T14:12:12;4.18;;;1.48;;
68976;SDS011;56029;52.568;13.588;2023-09-19T14:14:38;3.57;;;1.60;;
68976;SDS011;56029;52.568;13.588;2023-09-19T14:17:04;5.10;;;1.58;;
68976;SDS011;56029;52.568;13.588;2023-09-19T14:19:30;5.87;;;1.73;;
68976;SDS011;56029;52.568;13.588;2023-09-19T14:21:56;4.53;;;1.43;;
68976;SDS011;56029;52.568;13.588;2023-09-19T14:24:22;6.65;;;1.90;;
68976;SDS011;56029;52.568;13.588;2023-09-19T14:26:48;5.43;;;1.65;;
68976;SDS011;56029;52.568;13.588;2023-09-19T14:29:14;4.73;;;1.50;;
68976;SDS011;56029;52.568;13.588;2023-09-19T14:31:41;4.25;;;1.60;;
68976;SDS011;56029;52.568;13.588;2023-09-19T14:34:07;4.20;;;1.50;;
68976;SDS011;56029;52.568;13.588;2023-09-19T14:36:33;3.83;;;1.70;;
68976;SDS011;56029;52.568;13.588;2023-09-19T14:38:58;5.70;;;1.60;;
68976;SDS011;56029;52.568;13.588;2023-09-19T14:41:24;5.37;;;1.63;;
68976;SDS011;56029;52.568;13.588;2023-09-19T14:43:50;4.77;;;1.50;;
68976;SDS011;56029;52.568;13.588;2023-09-19T14:46:15;4.50;;;1.70;;
68976;SDS011;56029;52.568;13.588;2023-09-19T14:48:41;4.17;;;1.60;;
68976;SDS011;56029;52.568;13.588;2023-09-19T14:51:07;3.05;;;1.33;;
68976;SDS011;56029;52.568;13.588;2023-09-19T14:53:32;5.80;;;1.63;;
68976;SDS011;56029;52.568;13.588;2023-09-19T14:56:01;5.10;;;1.50;;
68976;SDS011;56029;52.568;13.588;2023-09-19T14:58:27;5.18;;;1.70;;
68976;SDS011;56029;52.568;13.588;2023-09-19T15:00:53;3.90;;;1.60;;
68976;SDS011;56029;52.568;13.588;2023-09-19T15:03:18;5.60;;;1.77;;
68976;SDS011;56029;52.568;13.588;2023-09-19T15:05:44;4.13;;;1.50;;
68976;SDS011;56029;52.568;13.588;2023-09-19T15:08:09;4.33;;;1.70;;
68976;SDS011;56029;52.568;13.588;2023-09-19T15:10:35;6.60;;;1.70;;